sensor_id;sensor_type;location;lat;lon;timestamp;P1;durP1;ratioP1;P2;durP2;ratioP2
47335;SDS011;33068;51.990;5.926;2023-03-14T00:01:41;3.00;;;1.15;;
47335;SDS011;33068;51.990;5.926;2023-03-14T00:04:10;8.18;;;1.80;;
47335;SDS011;33068;51.990;5.926;2023-03-14T00:06:37;10.32;;;1.67;;
47335;SDS011;33068;51.990;5.926;2023-03-14T00:09:04;6.00;;;1.40;;
47335;SDS011;33068;51.990;5.926;2023-03-14T00:11:32;7.15;;;1.40;;
47335;SDS011;33068;51.990;5.926;2023-03-14T00:13:59;4.43;;;1.50;;
47335;SDS011;33068;51.990;5.926;2023-03-14T00:16:26;7.57;;;1.98;;
47335;SDS011;33068;51.990;5.926;2023-03-14T00:18:54;11.80;;;1.38;;
47335;SDS011;33068;51.990;5.926;2023-03-14T00:21:22;9.10;;;1.35;;
47335;SDS011;33068;51.990;5.926;2023-03-14T00:23:49;14.30;;;1.30;;
47335;SDS011;33068;51.990;5.926;2023-03-14T00:26:16;5.38;;;1.13;;
47335;SDS011;33068;51.990;5.926;2023-03-14T00:28:44;8.98;;;1.40;;
47335;SDS011;33068;51.990;5.926;2023-03-14T00:31:16;8.13;;;1.10;;
47335;SDS011;33068;51.990;5.926;2023-03-14T00:33:44;7.50;;;1.05;;
47335;SDS011;33068;51.990;5.926;2023-03-14T00:36:13;7.25;;;1.27;;
47335;SDS011;33068;51.990;5.926;2023-03-14T00:38:42;5.45;;;0.82;;
47335;SDS011;33068;51.990;5.926;2023-03-14T00:41:11;6.30;;;1.05;;
47335;SDS011;33068;51.990;5.926;2023-03-14T00:43:40;5.47;;;1.02;;
47335;SDS011;33068;51.990;5.926;2023-03-14T00:46:08;5.95;;;0.80;;
47335;SDS011;33068;51.990;5.926;2023-03-14T00:48:35;8.57;;;1.17;;
47335;SDS011;33068;51.990;5.926;2023-03-14T00:51:02;7.05;;;0.70;;
47335;SDS011;33068;51.990;5.926;2023-03-14T00:53:34;5.97;;;0.60;;
47335;SDS011;33068;51.990;5.926;2023-03-14T00:56:03;7.15;;;0.90;;
47335;SDS011;33068;51.990;5.926;2023-03-14T00:58:30;5.72;;;0.80;;
47335;SDS011;33068;51.990;5.926;2023-03-14T01:00:58;12.52;;;0.70;;
47335;SDS011;33068;51.990;5.926;2023-03-14T01:03:25;5.07;;;0.73;;
47335;SDS011;33068;51.990;5.926;2023-03-14T01:05:52;4.72;;;0.55;;
47335;SDS011;33068;51.990;5.926;2023-03-14T01:08:19;3.97;;;0.50;;
47335;SDS011;33068;51.990;5.926;2023-03-14T01:10:48;6.85;;;0.95;;
47335;SDS011;33068;51.990;5.926;2023-03-14T01:13:15;5.22;;;0.55;;
47335;SDS011;33068;51.990;5.926;2023-03-14T01:15:42;6.53;;;0.63;;
47335;SDS011;33068;51.990;5.926;2023-03-14T01:18:12;5.18;;;0.80;;
47335;SDS011;33068;51.990;5.926;2023-03-14T01:20:39;3.83;;;0.70;;
47335;SDS011;33068;51.990;5.926;2023-03-14T01:23:08;3.17;;;0.77;;
47335;SDS011;33068;51.990;5.926;2023-03-14T01:25:35;3.72;;;1.08;;
47335;SDS011;33068;51.990;5.926;2023-03-14T01:28:09;7.05;;;0.90;;
47335;SDS011;33068;51.990;5.926;2023-03-14T01:30:36;5.90;;;0.98;;
47335;SDS011;33068;51.990;5.926;2023-03-14T01:33:03;5.97;;;1.20;;
47335;SDS011;33068;51.990;5.926;2023-03-14T01:35:31;9.30;;;1.00;;
47335;SDS011;33068;51.990;5.926;2023-03-14T01:37:58;6.78;;;0.90;;
47335;SDS011;33068;51.990;5.926;2023-03-14T01:40:26;10.73;;;1.13;;
47335;SDS011;33068;51.990;5.926;2023-03-14T01:42:56;6.47;;;0.80;;
47335;SDS011;33068;51.990;5.926;2023-03-14T01:48:32;5.50;;;0.70;;
47335;SDS011;33068;51.990;5.926;2023-03-14T01:51:03;8.25;;;1.65;;
47335;SDS011;33068;51.990;5.926;2023-03-14T01:53:33;8.18;;;1.17;;
47335;SDS011;33068;51.990;5.926;2023-03-14T01:56:01;8.73;;;1.27;;
47335;SDS011;33068;51.990;5.926;2023-03-14T01:58:29;9.57;;;1.30;;
47335;SDS011;33068;51.990;5.926;2023-03-14T02:01:00;6.00;;;1.30;;
47335;SDS011;33068;51.990;5.926;2023-03-14T02:03:30;8.73;;;1.23;;
47335;SDS011;33068;51.990;5.926;2023-03-14T02:06:06;8.57;;;1.20;;
47335;SDS011;33068;51.990;5.926;2023-03-14T02:08:36;10.50;;;1.40;;
47335;SDS011;33068;51.990;5.926;2023-03-14T02:11:12;10.75;;;2.50;;
47335;SDS011;33068;51.990;5.926;2023-03-14T02:13:49;8.02;;;1.33;;
47335;SDS011;33068;51.990;5.926;2023-03-14T02:16:34;8.38;;;1.55;;
47335;SDS011;33068;51.990;5.926;2023-03-14T02:19:31;12.05;;;1.92;;
47335;SDS011;33068;51.990;5.926;2023-03-14T02:22:44;9.13;;;1.50;;
47335;SDS011;33068;51.990;5.926;2023-03-14T02:25:16;5.80;;;2.55;;
47335;SDS011;33068;51.990;5.926;2023-03-14T02:27:51;10.35;;;1.73;;
47335;SDS011;33068;51.990;5.926;2023-03-14T02:30:19;10.70;;;2.13;;
47335;SDS011;33068;51.990;5.926;2023-03-14T02:32:49;13.65;;;1.55;;
47335;SDS011;33068;51.990;5.926;2023-03-14T02:35:20;11.70;;;1.65;;
47335;SDS011;33068;51.990;5.926;2023-03-14T02:37:52;9.50;;;1.63;;
47335;SDS011;33068;51.990;5.926;2023-03-14T02:40:23;13.93;;;2.03;;
47335;SDS011;33068;51.990;5.926;2023-03-14T02:42:55;9.50;;;1.55;;
47335;SDS011;33068;51.990;5.926;2023-03-14T02:45:36;11.15;;;1.70;;
47335;SDS011;33068;51.990;5.926;2023-03-14T02:48:15;15.00;;;1.77;;
47335;SDS011;33068;51.990;5.926;2023-03-14T02:50:45;11.20;;;1.13;;
47335;SDS011;33068;51.990;5.926;2023-03-14T02:53:16;7.78;;;1.52;;
47335;SDS011;33068;51.990;5.926;2023-03-14T02:55:46;8.52;;;0.95;;
47335;SDS011;33068;51.990;5.926;2023-03-14T02:58:17;9.27;;;1.50;;
47335;SDS011;33068;51.990;5.926;2023-03-14T03:00:51;10.73;;;1.13;;
47335;SDS011;33068;51.990;5.926;2023-03-14T03:03:19;15.50;;;1.23;;
47335;SDS011;33068;51.990;5.926;2023-03-14T03:05:48;9.30;;;1.20;;
47335;SDS011;33068;51.990;5.926;2023-03-14T03:08:17;10.40;;;1.30;;
47335;SDS011;33068;51.990;5.926;2023-03-14T03:10:45;17.95;;;1.42;;
47335;SDS011;33068;51.990;5.926;2023-03-14T03:13:13;10.63;;;1.00;;
47335;SDS011;33068;51.990;5.926;2023-03-14T03:15:42;8.07;;;1.13;;
47335;SDS011;33068;51.990;5.926;2023-03-14T03:18:10;10.25;;;1.45;;
47335;SDS011;33068;51.990;5.926;2023-03-14T03:20:38;10.40;;;1.33;;
47335;SDS011;33068;51.990;5.926;2023-03-14T03:23:05;16.17;;;2.08;;
47335;SDS011;33068;51.990;5.926;2023-03-14T03:25:32;10.85;;;1.45;;
47335;SDS011;33068;51.990;5.926;2023-03-14T03:28:02;9.43;;;1.20;;
47335;SDS011;33068;51.990;5.926;2023-03-14T03:30:37;8.18;;;1.15;;
47335;SDS011;33068;51.990;5.926;2023-03-14T03:33:06;6.25;;;1.20;;
47335;SDS011;33068;51.990;5.926;2023-03-14T03:35:41;12.90;;;1.40;;
47335;SDS011;33068;51.990;5.926;2023-03-14T03:38:10;8.65;;;1.80;;
47335;SDS011;33068;51.990;5.926;2023-03-14T03:40:38;9.30;;;1.30;;
47335;SDS011;33068;51.990;5.926;2023-03-14T03:43:07;4.40;;;1.50;;
47335;SDS011;33068;51.990;5.926;2023-03-14T03:45:37;9.88;;;1.42;;
47335;SDS011;33068;51.990;5.926;2023-03-14T03:48:06;5.70;;;1.50;;
47335;SDS011;33068;51.990;5.926;2023-03-14T03:50:33;13.35;;;1.70;;
47335;SDS011;33068;51.990;5.926;2023-03-14T03:53:01;14.02;;;1.70;;
47335;SDS011;33068;51.990;5.926;2023-03-14T03:55:28;15.57;;;1.70;;
47335;SDS011;33068;51.990;5.926;2023-03-14T03:57:55;12.50;;;1.88;;
47335;SDS011;33068;51.990;5.926;2023-03-14T04:00:24;14.65;;;2.00;;
47335;SDS011;33068;51.990;5.926;2023-03-14T04:02:51;13.73;;;1.70;;
47335;SDS011;33068;51.990;5.926;2023-03-14T04:05:20;7.30;;;1.23;;
47335;SDS011;33068;51.990;5.926;2023-03-14T04:07:53;14.93;;;1.85;;
47335;SDS011;33068;51.990;5.926;2023-03-14T04:10:24;9.60;;;1.77;;
47335;SDS011;33068;51.990;5.926;2023-03-14T04:13:10;20.15;;;2.05;;
47335;SDS011;33068;51.990;5.926;2023-03-14T04:15:39;14.32;;;2.65;;
47335;SDS011;33068;51.990;5.926;2023-03-14T04:18:26;8.27;;;1.60;;
47335;SDS011;33068;51.990;5.926;2023-03-14T04:20:57;15.57;;;1.67;;
47335;SDS011;33068;51.990;5.926;2023-03-14T04:23:33;7.57;;;1.30;;
47335;SDS011;33068;51.990;5.926;2023-03-14T04:26:00;11.10;;;1.90;;
47335;SDS011;33068;51.990;5.926;2023-03-14T04:28:30;10.95;;;1.85;;
47335;SDS011;33068;51.990;5.926;2023-03-14T04:30:58;5.57;;;1.05;;
47335;SDS011;33068;51.990;5.926;2023-03-14T04:33:27;8.88;;;1.00;;
47335;SDS011;33068;51.990;5.926;2023-03-14T04:35:57;11.88;;;1.08;;
47335;SDS011;33068;51.990;5.926;2023-03-14T04:38:24;13.88;;;1.60;;
47335;SDS011;33068;51.990;5.926;2023-03-14T04:40:52;13.88;;;1.02;;
47335;SDS011;33068;51.990;5.926;2023-03-14T04:43:26;9.98;;;1.17;;
47335;SDS011;33068;51.990;5.926;2023-03-14T04:46:00;6.95;;;1.17;;
47335;SDS011;33068;51.990;5.926;2023-03-14T04:48:27;7.63;;;1.05;;
47335;SDS011;33068;51.990;5.926;2023-03-14T04:50:57;9.63;;;1.33;;
47335;SDS011;33068;51.990;5.926;2023-03-14T04:53:29;7.88;;;1.02;;
47335;SDS011;33068;51.990;5.926;2023-03-14T04:55:57;10.43;;;1.58;;
47335;SDS011;33068;51.990;5.926;2023-03-14T04:58:31;9.90;;;1.00;;
47335;SDS011;33068;51.990;5.926;2023-03-14T05:01:01;9.60;;;0.90;;
47335;SDS011;33068;51.990;5.926;2023-03-14T05:03:38;7.38;;;0.90;;
47335;SDS011;33068;51.990;5.926;2023-03-14T05:06:26;10.02;;;1.00;;
47335;SDS011;33068;51.990;5.926;2023-03-14T05:09:03;11.18;;;1.17;;
47335;SDS011;33068;51.990;5.926;2023-03-14T05:11:31;6.38;;;0.85;;
47335;SDS011;33068;51.990;5.926;2023-03-14T05:14:07;11.38;;;0.85;;
47335;SDS011;33068;51.990;5.926;2023-03-14T05:19:25;10.85;;;0.90;;
47335;SDS011;33068;51.990;5.926;2023-03-14T05:22:06;9.80;;;0.80;;
47335;SDS011;33068;51.990;5.926;2023-03-14T05:24:45;12.27;;;1.10;;
47335;SDS011;33068;51.990;5.926;2023-03-14T05:27:31;7.45;;;1.00;;
47335;SDS011;33068;51.990;5.926;2023-03-14T05:30:24;7.25;;;0.60;;
47335;SDS011;33068;51.990;5.926;2023-03-14T05:33:16;7.00;;;0.70;;
47335;SDS011;33068;51.990;5.926;2023-03-14T05:36:09;6.85;;;0.50;;
47335;SDS011;33068;51.990;5.926;2023-03-14T05:38:38;5.70;;;0.60;;
47335;SDS011;33068;51.990;5.926;2023-03-14T05:41:38;5.47;;;0.68;;
47335;SDS011;33068;51.990;5.926;2023-03-14T05:44:26;7.32;;;0.55;;
47335;SDS011;33068;51.990;5.926;2023-03-14T05:47:11;5.00;;;0.80;;
47335;SDS011;33068;51.990;5.926;2023-03-14T05:49:57;4.47;;;0.47;;
47335;SDS011;33068;51.990;5.926;2023-03-14T05:53:00;4.32;;;0.50;;
47335;SDS011;33068;51.990;5.926;2023-03-14T05:55:52;12.10;;;0.90;;
47335;SDS011;33068;51.990;5.926;2023-03-14T05:58:49;8.13;;;1.02;;
47335;SDS011;33068;51.990;5.926;2023-03-14T06:02:08;4.45;;;0.60;;
47335;SDS011;33068;51.990;5.926;2023-03-14T06:04:53;3.25;;;0.70;;
47335;SDS011;33068;51.990;5.926;2023-03-14T06:07:20;5.75;;;0.80;;
47335;SDS011;33068;51.990;5.926;2023-03-14T06:09:48;3.08;;;0.93;;
47335;SDS011;33068;51.990;5.926;2023-03-14T06:12:19;8.60;;;0.82;;
47335;SDS011;33068;51.990;5.926;2023-03-14T06:14:49;3.85;;;0.73;;
47335;SDS011;33068;51.990;5.926;2023-03-14T06:17:19;3.83;;;1.10;;
47335;SDS011;33068;51.990;5.926;2023-03-14T06:19:52;4.78;;;1.30;;
47335;SDS011;33068;51.990;5.926;2023-03-14T06:22:22;7.45;;;1.00;;
47335;SDS011;33068;51.990;5.926;2023-03-14T06:24:49;4.47;;;1.48;;
47335;SDS011;33068;51.990;5.926;2023-03-14T06:27:17;6.03;;;1.67;;
47335;SDS011;33068;51.990;5.926;2023-03-14T06:29:47;3.25;;;1.45;;
47335;SDS011;33068;51.990;5.926;2023-03-14T06:32:14;5.70;;;1.48;;
47335;SDS011;33068;51.990;5.926;2023-03-14T06:34:41;8.80;;;1.60;;
47335;SDS011;33068;51.990;5.926;2023-03-14T06:37:08;7.18;;;1.60;;
47335;SDS011;33068;51.990;5.926;2023-03-14T06:39:36;7.07;;;2.50;;
47335;SDS011;33068;51.990;5.926;2023-03-14T06:42:11;5.22;;;1.83;;
47335;SDS011;33068;51.990;5.926;2023-03-14T06:44:42;6.10;;;1.77;;
47335;SDS011;33068;51.990;5.926;2023-03-14T06:47:10;10.60;;;2.28;;
47335;SDS011;33068;51.990;5.926;2023-03-14T06:49:45;6.18;;;2.22;;
47335;SDS011;33068;51.990;5.926;2023-03-14T06:52:22;10.77;;;2.50;;
47335;SDS011;33068;51.990;5.926;2023-03-14T06:54:51;6.65;;;2.55;;
47335;SDS011;33068;51.990;5.926;2023-03-14T06:57:25;13.02;;;2.97;;
47335;SDS011;33068;51.990;5.926;2023-03-14T07:03:13;9.93;;;2.88;;
47335;SDS011;33068;51.990;5.926;2023-03-14T07:05:48;7.38;;;2.75;;
47335;SDS011;33068;51.990;5.926;2023-03-14T07:08:22;7.03;;;3.22;;
47335;SDS011;33068;51.990;5.926;2023-03-14T07:10:51;9.40;;;3.05;;
47335;SDS011;33068;51.990;5.926;2023-03-14T07:13:18;12.65;;;3.70;;
47335;SDS011;33068;51.990;5.926;2023-03-14T07:15:53;7.47;;;3.20;;
47335;SDS011;33068;51.990;5.926;2023-03-14T07:18:29;10.13;;;3.50;;
47335;SDS011;33068;51.990;5.926;2023-03-14T07:20:57;8.02;;;3.85;;
47335;SDS011;33068;51.990;5.926;2023-03-14T07:23:24;11.52;;;3.22;;
47335;SDS011;33068;51.990;5.926;2023-03-14T07:25:55;11.40;;;3.53;;
47335;SDS011;33068;51.990;5.926;2023-03-14T07:28:24;8.10;;;3.67;;
47335;SDS011;33068;51.990;5.926;2023-03-14T07:30:59;13.60;;;3.90;;
47335;SDS011;33068;51.990;5.926;2023-03-14T07:33:31;3.85;;;1.50;;
47335;SDS011;33068;51.990;5.926;2023-03-14T07:36:00;6.30;;;2.08;;
47335;SDS011;33068;51.990;5.926;2023-03-14T07:38:27;7.40;;;2.65;;
47335;SDS011;33068;51.990;5.926;2023-03-14T07:41:15;6.45;;;2.45;;
47335;SDS011;33068;51.990;5.926;2023-03-14T07:44:02;5.00;;;2.30;;
47335;SDS011;33068;51.990;5.926;2023-03-14T07:46:29;2.17;;;1.35;;
47335;SDS011;33068;51.990;5.926;2023-03-14T07:48:58;3.53;;;0.80;;
47335;SDS011;33068;51.990;5.926;2023-03-14T07:51:25;1.80;;;0.60;;
47335;SDS011;33068;51.990;5.926;2023-03-14T07:53:55;2.00;;;0.40;;
47335;SDS011;33068;51.990;5.926;2023-03-14T07:56:22;1.10;;;0.57;;
47335;SDS011;33068;51.990;5.926;2023-03-14T07:58:49;2.42;;;0.47;;
47335;SDS011;33068;51.990;5.926;2023-03-14T08:01:16;1.33;;;0.35;;
47335;SDS011;33068;51.990;5.926;2023-03-14T08:03:43;1.23;;;0.20;;
47335;SDS011;33068;51.990;5.926;2023-03-14T08:06:12;4.30;;;0.40;;
47335;SDS011;33068;51.990;5.926;2023-03-14T08:08:39;1.45;;;0.50;;
47335;SDS011;33068;51.990;5.926;2023-03-14T08:11:07;2.15;;;0.45;;
47335;SDS011;33068;51.990;5.926;2023-03-14T08:13:36;0.95;;;0.52;;
47335;SDS011;33068;51.990;5.926;2023-03-14T08:16:04;1.40;;;0.47;;
47335;SDS011;33068;51.990;5.926;2023-03-14T08:18:31;1.20;;;0.40;;
47335;SDS011;33068;51.990;5.926;2023-03-14T08:20:58;4.93;;;0.50;;
47335;SDS011;33068;51.990;5.926;2023-03-14T08:23:27;2.20;;;0.50;;
47335;SDS011;33068;51.990;5.926;2023-03-14T08:25:55;4.15;;;0.60;;
47335;SDS011;33068;51.990;5.926;2023-03-14T08:28:23;3.75;;;0.57;;
47335;SDS011;33068;51.990;5.926;2023-03-14T08:30:55;4.05;;;0.82;;
47335;SDS011;33068;51.990;5.926;2023-03-14T08:33:23;2.38;;;0.50;;
47335;SDS011;33068;51.990;5.926;2023-03-14T08:35:51;1.75;;;0.70;;
47335;SDS011;33068;51.990;5.926;2023-03-14T08:38:20;4.93;;;0.60;;
47335;SDS011;33068;51.990;5.926;2023-03-14T08:40:48;3.35;;;0.57;;
47335;SDS011;33068;51.990;5.926;2023-03-14T08:43:21;0.73;;;0.30;;
47335;SDS011;33068;51.990;5.926;2023-03-14T08:45:48;3.28;;;0.50;;
47335;SDS011;33068;51.990;5.926;2023-03-14T08:48:15;3.13;;;0.40;;
47335;SDS011;33068;51.990;5.926;2023-03-14T08:50:42;0.80;;;0.20;;
47335;SDS011;33068;51.990;5.926;2023-03-14T08:53:10;1.15;;;0.38;;
47335;SDS011;33068;51.990;5.926;2023-03-14T08:55:37;2.67;;;0.20;;
47335;SDS011;33068;51.990;5.926;2023-03-14T08:58:08;3.35;;;0.30;;
47335;SDS011;33068;51.990;5.926;2023-03-14T09:00:35;5.97;;;0.35;;
47335;SDS011;33068;51.990;5.926;2023-03-14T09:03:02;2.72;;;0.20;;
47335;SDS011;33068;51.990;5.926;2023-03-14T09:05:32;4.97;;;0.30;;
47335;SDS011;33068;51.990;5.926;2023-03-14T09:07:59;7.50;;;0.20;;
47335;SDS011;33068;51.990;5.926;2023-03-14T09:10:26;2.35;;;0.40;;
47335;SDS011;33068;51.990;5.926;2023-03-14T09:12:53;5.45;;;0.57;;
47335;SDS011;33068;51.990;5.926;2023-03-14T09:15:23;2.92;;;0.40;;
47335;SDS011;33068;51.990;5.926;2023-03-14T09:17:50;6.47;;;0.45;;
47335;SDS011;33068;51.990;5.926;2023-03-14T09:20:18;3.20;;;0.30;;
47335;SDS011;33068;51.990;5.926;2023-03-14T09:22:45;3.45;;;0.20;;
47335;SDS011;33068;51.990;5.926;2023-03-14T09:25:14;4.50;;;0.20;;
47335;SDS011;33068;51.990;5.926;2023-03-14T09:27:44;7.53;;;0.35;;
47335;SDS011;33068;51.990;5.926;2023-03-14T09:30:11;3.15;;;0.30;;
47335;SDS011;33068;51.990;5.926;2023-03-14T09:32:41;3.55;;;0.20;;
47335;SDS011;33068;51.990;5.926;2023-03-14T09:35:09;2.53;;;0.30;;
47335;SDS011;33068;51.990;5.926;2023-03-14T09:37:36;3.95;;;0.43;;
47335;SDS011;33068;51.990;5.926;2023-03-14T09:40:03;1.30;;;0.20;;
47335;SDS011;33068;51.990;5.926;2023-03-14T09:42:35;1.08;;;0.10;;
47335;SDS011;33068;51.990;5.926;2023-03-14T09:45:04;2.15;;;0.17;;
47335;SDS011;33068;51.990;5.926;2023-03-14T09:47:37;2.50;;;0.30;;
47335;SDS011;33068;51.990;5.926;2023-03-14T09:50:06;6.10;;;0.30;;
47335;SDS011;33068;51.990;5.926;2023-03-14T09:52:38;3.53;;;0.38;;
47335;SDS011;33068;51.990;5.926;2023-03-14T09:55:10;2.90;;;0.32;;
47335;SDS011;33068;51.990;5.926;2023-03-14T09:57:48;3.20;;;0.40;;
47335;SDS011;33068;51.990;5.926;2023-03-14T10:00:22;2.25;;;0.20;;
47335;SDS011;33068;51.990;5.926;2023-03-14T10:03:09;5.93;;;0.50;;
47335;SDS011;33068;51.990;5.926;2023-03-14T10:05:51;2.92;;;0.22;;
47335;SDS011;33068;51.990;5.926;2023-03-14T10:08:21;7.32;;;0.40;;
47335;SDS011;33068;51.990;5.926;2023-03-14T10:10:48;3.63;;;0.38;;
47335;SDS011;33068;51.990;5.926;2023-03-14T10:13:21;6.22;;;0.50;;
47335;SDS011;33068;51.990;5.926;2023-03-14T10:15:55;10.70;;;0.50;;
47335;SDS011;33068;51.990;5.926;2023-03-14T10:18:25;7.55;;;0.70;;
47335;SDS011;33068;51.990;5.926;2023-03-14T10:21:05;8.73;;;1.00;;
47335;SDS011;33068;51.990;5.926;2023-03-14T10:23:36;8.65;;;0.50;;
47335;SDS011;33068;51.990;5.926;2023-03-14T10:26:06;8.98;;;1.00;;
47335;SDS011;33068;51.990;5.926;2023-03-14T10:28:41;6.50;;;0.63;;
47335;SDS011;33068;51.990;5.926;2023-03-14T10:31:16;13.30;;;1.55;;
47335;SDS011;33068;51.990;5.926;2023-03-14T10:33:56;14.05;;;1.00;;
47335;SDS011;33068;51.990;5.926;2023-03-14T10:36:29;10.75;;;0.95;;
47335;SDS011;33068;51.990;5.926;2023-03-14T10:39:14;12.23;;;1.15;;
47335;SDS011;33068;51.990;5.926;2023-03-14T10:41:53;11.18;;;1.48;;
47335;SDS011;33068;51.990;5.926;2023-03-14T10:44:24;8.88;;;0.82;;
47335;SDS011;33068;51.990;5.926;2023-03-14T10:47:15;15.15;;;1.15;;
47335;SDS011;33068;51.990;5.926;2023-03-14T10:50:19;20.25;;;1.40;;
47335;SDS011;33068;51.990;5.926;2023-03-14T10:52:51;20.35;;;1.58;;
47335;SDS011;33068;51.990;5.926;2023-03-14T10:55:19;11.32;;;1.48;;
47335;SDS011;33068;51.990;5.926;2023-03-14T10:57:46;14.57;;;1.05;;
47335;SDS011;33068;51.990;5.926;2023-03-14T11:00:14;9.10;;;0.90;;
47335;SDS011;33068;51.990;5.926;2023-03-14T11:02:52;10.68;;;0.70;;
47335;SDS011;33068;51.990;5.926;2023-03-14T11:05:31;5.15;;;0.63;;
47335;SDS011;33068;51.990;5.926;2023-03-14T11:08:07;10.30;;;0.80;;
47335;SDS011;33068;51.990;5.926;2023-03-14T11:10:36;19.40;;;1.58;;
47335;SDS011;33068;51.990;5.926;2023-03-14T11:13:15;14.85;;;1.70;;
47335;SDS011;33068;51.990;5.926;2023-03-14T11:15:50;14.20;;;1.65;;
47335;SDS011;33068;51.990;5.926;2023-03-14T11:21:17;19.80;;;1.77;;
47335;SDS011;33068;51.990;5.926;2023-03-14T11:23:54;18.02;;;1.50;;
47335;SDS011;33068;51.990;5.926;2023-03-14T11:26:34;20.02;;;1.65;;
47335;SDS011;33068;51.990;5.926;2023-03-14T11:29:12;15.85;;;1.33;;
47335;SDS011;33068;51.990;5.926;2023-03-14T11:31:46;13.20;;;1.05;;
47335;SDS011;33068;51.990;5.926;2023-03-14T11:34:15;15.13;;;1.42;;
47335;SDS011;33068;51.990;5.926;2023-03-14T11:36:50;12.82;;;1.77;;
47335;SDS011;33068;51.990;5.926;2023-03-14T11:39:20;20.73;;;2.28;;
47335;SDS011;33068;51.990;5.926;2023-03-14T11:41:51;18.25;;;2.17;;
47335;SDS011;33068;51.990;5.926;2023-03-14T11:44:22;14.05;;;1.30;;
47335;SDS011;33068;51.990;5.926;2023-03-14T11:46:54;15.80;;;2.05;;
47335;SDS011;33068;51.990;5.926;2023-03-14T11:49:26;14.63;;;1.45;;
47335;SDS011;33068;51.990;5.926;2023-03-14T11:52:01;20.10;;;2.17;;
47335;SDS011;33068;51.990;5.926;2023-03-14T11:54:35;14.05;;;1.65;;
47335;SDS011;33068;51.990;5.926;2023-03-14T11:57:11;25.92;;;1.45;;
47335;SDS011;33068;51.990;5.926;2023-03-14T11:59:46;11.70;;;1.25;;
47335;SDS011;33068;51.990;5.926;2023-03-14T12:02:21;20.35;;;2.13;;
47335;SDS011;33068;51.990;5.926;2023-03-14T12:05:04;10.20;;;1.27;;
47335;SDS011;33068;51.990;5.926;2023-03-14T12:11:17;22.27;;;2.15;;
47335;SDS011;33068;51.990;5.926;2023-03-14T12:13:55;15.27;;;1.45;;
47335;SDS011;33068;51.990;5.926;2023-03-14T12:22:08;12.60;;;1.02;;
47335;SDS011;33068;51.990;5.926;2023-03-14T12:24:51;9.65;;;1.05;;
47335;SDS011;33068;51.990;5.926;2023-03-14T12:30:29;8.60;;;0.82;;
47335;SDS011;33068;51.990;5.926;2023-03-14T12:36:02;20.30;;;1.27;;
47335;SDS011;33068;51.990;5.926;2023-03-14T12:38:45;13.38;;;1.00;;
47335;SDS011;33068;51.990;5.926;2023-03-14T12:41:19;7.10;;;0.70;;
47335;SDS011;33068;51.990;5.926;2023-03-14T12:43:51;7.03;;;0.77;;
47335;SDS011;33068;51.990;5.926;2023-03-14T12:46:22;11.60;;;0.80;;
47335;SDS011;33068;51.990;5.926;2023-03-14T12:48:54;11.48;;;0.90;;
47335;SDS011;33068;51.990;5.926;2023-03-14T12:51:28;6.85;;;1.15;;
47335;SDS011;33068;51.990;5.926;2023-03-14T12:54:19;10.52;;;1.25;;
47335;SDS011;33068;51.990;5.926;2023-03-14T12:57:06;7.90;;;0.68;;
47335;SDS011;33068;51.990;5.926;2023-03-14T12:59:46;10.07;;;0.90;;
47335;SDS011;33068;51.990;5.926;2023-03-14T13:02:24;8.90;;;0.60;;
47335;SDS011;33068;51.990;5.926;2023-03-14T13:04:59;6.70;;;0.75;;
47335;SDS011;33068;51.990;5.926;2023-03-14T13:07:34;10.15;;;1.00;;
47335;SDS011;33068;51.990;5.926;2023-03-14T13:10:17;10.45;;;0.90;;
47335;SDS011;33068;51.990;5.926;2023-03-14T13:12:48;9.70;;;0.52;;
47335;SDS011;33068;51.990;5.926;2023-03-14T13:15:25;4.32;;;0.50;;
47335;SDS011;33068;51.990;5.926;2023-03-14T13:17:56;6.95;;;0.93;;
47335;SDS011;33068;51.990;5.926;2023-03-14T13:20:29;5.00;;;0.63;;
47335;SDS011;33068;51.990;5.926;2023-03-14T13:23:01;6.43;;;0.95;;
47335;SDS011;33068;51.990;5.926;2023-03-14T13:25:29;4.22;;;0.40;;
47335;SDS011;33068;51.990;5.926;2023-03-14T13:28:01;10.73;;;0.90;;
47335;SDS011;33068;51.990;5.926;2023-03-14T13:30:35;6.35;;;0.68;;
47335;SDS011;33068;51.990;5.926;2023-03-14T13:33:06;10.20;;;0.93;;
47335;SDS011;33068;51.990;5.926;2023-03-14T13:35:38;6.53;;;0.52;;
47335;SDS011;33068;51.990;5.926;2023-03-14T13:38:13;2.97;;;0.60;;
47335;SDS011;33068;51.990;5.926;2023-03-14T13:40:46;2.67;;;0.50;;
47335;SDS011;33068;51.990;5.926;2023-03-14T13:43:15;2.35;;;0.40;;
47335;SDS011;33068;51.990;5.926;2023-03-14T13:45:51;5.97;;;0.65;;
47335;SDS011;33068;51.990;5.926;2023-03-14T13:48:25;6.32;;;0.85;;
47335;SDS011;33068;51.990;5.926;2023-03-14T13:50:55;5.32;;;0.47;;
47335;SDS011;33068;51.990;5.926;2023-03-14T13:53:27;7.47;;;0.50;;
47335;SDS011;33068;51.990;5.926;2023-03-14T13:55:55;4.63;;;0.50;;
47335;SDS011;33068;51.990;5.926;2023-03-14T13:58:23;7.68;;;0.80;;
47335;SDS011;33068;51.990;5.926;2023-03-14T14:01:12;6.75;;;0.50;;
47335;SDS011;33068;51.990;5.926;2023-03-14T14:03:42;4.35;;;0.60;;
47335;SDS011;33068;51.990;5.926;2023-03-14T14:06:21;4.75;;;0.60;;
47335;SDS011;33068;51.990;5.926;2023-03-14T14:08:53;6.32;;;0.73;;
47335;SDS011;33068;51.990;5.926;2023-03-14T14:11:22;4.97;;;0.50;;
47335;SDS011;33068;51.990;5.926;2023-03-14T14:14:00;4.95;;;0.40;;
47335;SDS011;33068;51.990;5.926;2023-03-14T14:16:29;3.45;;;0.50;;
47335;SDS011;33068;51.990;5.926;2023-03-14T14:18:57;8.48;;;0.60;;
47335;SDS011;33068;51.990;5.926;2023-03-14T14:21:26;4.43;;;0.50;;
47335;SDS011;33068;51.990;5.926;2023-03-14T14:23:54;3.05;;;0.55;;
47335;SDS011;33068;51.990;5.926;2023-03-14T14:26:21;5.55;;;0.47;;
47335;SDS011;33068;51.990;5.926;2023-03-14T14:28:57;6.60;;;0.45;;
47335;SDS011;33068;51.990;5.926;2023-03-14T14:31:32;3.42;;;0.30;;
47335;SDS011;33068;51.990;5.926;2023-03-14T14:34:02;6.10;;;1.08;;
47335;SDS011;33068;51.990;5.926;2023-03-14T14:36:31;6.95;;;0.70;;
47335;SDS011;33068;51.990;5.926;2023-03-14T14:39:04;3.92;;;0.40;;
47335;SDS011;33068;51.990;5.926;2023-03-14T14:41:39;5.75;;;0.50;;
47335;SDS011;33068;51.990;5.926;2023-03-14T14:44:10;8.02;;;0.60;;
47335;SDS011;33068;51.990;5.926;2023-03-14T14:46:43;8.48;;;0.50;;
47335;SDS011;33068;51.990;5.926;2023-03-14T14:49:12;4.35;;;0.73;;
47335;SDS011;33068;51.990;5.926;2023-03-14T14:51:41;5.03;;;0.57;;
47335;SDS011;33068;51.990;5.926;2023-03-14T14:54:11;2.67;;;0.40;;
47335;SDS011;33068;51.990;5.926;2023-03-14T14:56:44;4.60;;;0.60;;
47335;SDS011;33068;51.990;5.926;2023-03-14T14:59:21;2.72;;;0.30;;
47335;SDS011;33068;51.990;5.926;2023-03-14T15:01:54;5.68;;;0.40;;
47335;SDS011;33068;51.990;5.926;2023-03-14T15:04:22;2.45;;;0.43;;
47335;SDS011;33068;51.990;5.926;2023-03-14T15:06:50;7.32;;;0.50;;
47335;SDS011;33068;51.990;5.926;2023-03-14T15:09:19;5.65;;;0.40;;
47335;SDS011;33068;51.990;5.926;2023-03-14T15:11:46;3.33;;;0.40;;
47335;SDS011;33068;51.990;5.926;2023-03-14T15:14:14;5.18;;;0.40;;
47335;SDS011;33068;51.990;5.926;2023-03-14T15:16:41;3.50;;;0.55;;
47335;SDS011;33068;51.990;5.926;2023-03-14T15:19:11;7.63;;;0.68;;
47335;SDS011;33068;51.990;5.926;2023-03-14T15:21:43;7.40;;;0.40;;
47335;SDS011;33068;51.990;5.926;2023-03-14T15:24:10;3.13;;;0.22;;
47335;SDS011;33068;51.990;5.926;2023-03-14T15:26:37;4.97;;;0.60;;
47335;SDS011;33068;51.990;5.926;2023-03-14T15:29:04;3.22;;;0.30;;
47335;SDS011;33068;51.990;5.926;2023-03-14T15:31:33;5.82;;;0.70;;
47335;SDS011;33068;51.990;5.926;2023-03-14T15:34:03;8.15;;;0.60;;
47335;SDS011;33068;51.990;5.926;2023-03-14T15:36:32;7.00;;;0.80;;
47335;SDS011;33068;51.990;5.926;2023-03-14T15:39:00;6.20;;;0.80;;
47335;SDS011;33068;51.990;5.926;2023-03-14T15:41:28;4.20;;;0.60;;